createdAt,value
2023-01-23T00:00:48.319Z,9.65
2023-01-23T00:01:51.707Z,8.63
2023-01-23T00:02:54.918Z,8.82
2023-01-23T00:03:58.841Z,9.40
2023-01-23T00:05:01.953Z,9.35
2023-01-23T00:06:10.330Z,9.65
2023-01-23T00:07:13.463Z,9.35
2023-01-23T00:08:16.521Z,8.38
2023-01-23T00:09:19.884Z,9.48
2023-01-23T00:10:23.172Z,9.13
2023-01-23T00:11:30.158Z,9.98
2023-01-23T00:12:33.288Z,9.40
2023-01-23T00:13:36.493Z,9.20
2023-01-23T00:14:39.595Z,9.95
2023-01-23T00:15:42.829Z,10.23
2023-01-23T00:16:45.986Z,9.15
2023-01-23T00:17:49.230Z,9.23
2023-01-23T00:18:52.940Z,9.90
2023-01-23T00:19:56.681Z,8.80
2023-01-23T00:21:04.581Z,9.73
2023-01-23T00:22:07.756Z,8.82
2023-01-23T00:23:12.100Z,9.07
2023-01-23T00:24:15.324Z,9.35
2023-01-23T00:25:18.506Z,8.68
2023-01-23T00:26:26.935Z,10.50
2023-01-23T00:27:30.137Z,8.57
2023-01-23T00:28:35.074Z,9.15
2023-01-23T00:29:38.184Z,9.52
2023-01-23T00:30:41.367Z,8.32
2023-01-23T00:31:44.801Z,9.73
2023-01-23T00:32:48.242Z,9.80
2023-01-23T00:34:00.161Z,9.13
2023-01-23T00:35:03.458Z,10.18
2023-01-23T00:36:07.600Z,8.98
2023-01-23T00:37:10.695Z,9.63
2023-01-23T00:38:13.882Z,9.07
2023-01-23T00:39:21.320Z,8.80
2023-01-23T00:40:24.608Z,9.18
2023-01-23T00:41:28.221Z,9.80
2023-01-23T00:42:31.382Z,9.45
2023-01-23T00:43:36.747Z,9.02
2023-01-23T00:44:39.892Z,9.68
2023-01-23T00:45:43.446Z,9.82
2023-01-23T00:46:47.937Z,9.55
2023-01-23T00:47:51.172Z,10.27
2023-01-23T00:48:54.457Z,9.65
2023-01-23T00:49:59.159Z,8.90
2023-01-23T00:51:02.359Z,10.68
2023-01-23T00:52:05.555Z,9.95
2023-01-23T00:53:08.731Z,8.63
2023-01-23T00:54:12.553Z,8.98
2023-01-23T00:55:15.664Z,9.10
2023-01-23T00:56:19.121Z,9.63
2023-01-23T00:57:22.286Z,8.30
2023-01-23T00:58:25.550Z,8.80
2023-01-23T00:59:28.738Z,7.72
2023-01-23T01:00:31.905Z,10.82
2023-01-23T01:01:35.493Z,9.52
2023-01-23T01:02:38.788Z,10.18
2023-01-23T01:03:43.715Z,8.55
2023-01-23T01:04:46.870Z,8.50
2023-01-23T01:05:49.911Z,7.75
2023-01-23T01:06:53.047Z,8.63
2023-01-23T01:07:56.276Z,9.10
2023-01-23T01:09:00.020Z,8.88
2023-01-23T01:10:03.331Z,8.52
2023-01-23T01:11:07.050Z,8.65
2023-01-23T01:12:10.370Z,9.20
2023-01-23T01:13:14.663Z,8.82
2023-01-23T01:14:17.996Z,9.40
2023-01-23T01:15:23.467Z,8.88
2023-01-23T01:16:26.641Z,9.07
2023-01-23T01:17:30.099Z,9.65
2023-01-23T01:18:33.289Z,9.40
2023-01-23T01:19:37.158Z,9.45
2023-01-23T01:20:42.816Z,9.98
2023-01-23T01:21:46.208Z,9.35
2023-01-23T01:22:50.027Z,8.60
2023-01-23T01:23:53.309Z,9.07
2023-01-23T01:24:57.589Z,8.13
2023-01-23T01:26:01.742Z,9.25
2023-01-23T01:27:04.923Z,9.25
2023-01-23T01:28:08.486Z,9.00
2023-01-23T01:29:11.720Z,9.75
2023-01-23T01:30:19.781Z,9.27
2023-01-23T01:31:24.385Z,8.68
2023-01-23T01:32:27.540Z,8.55
2023-01-23T01:33:30.705Z,9.15
2023-01-23T01:34:34.036Z,8.65
2023-01-23T01:35:41.125Z,8.52
2023-01-23T01:36:44.279Z,8.63
2023-01-23T01:37:47.719Z,9.55
2023-01-23T01:38:51.447Z,9.20
2023-01-23T01:39:54.560Z,9.43
2023-01-23T01:40:57.637Z,8.85
2023-01-23T01:42:00.765Z,10.38
2023-01-23T01:43:09.494Z,9.07
2023-01-23T01:44:24.046Z,8.68
2023-01-23T01:46:06.990Z,8.52
2023-01-23T01:47:15.906Z,8.85
2023-01-23T01:48:24.766Z,9.18
2023-01-23T01:49:33.634Z,9.75
2023-01-23T01:50:37.547Z,9.32
2023-01-23T01:52:08.939Z,9.25
2023-01-23T01:53:12.191Z,8.07
2023-01-23T01:54:53.188Z,8.70
2023-01-23T01:55:58.131Z,8.70
2023-01-23T01:57:16.277Z,7.47
2023-01-23T01:58:20.027Z,7.50
2023-01-23T01:59:26.533Z,9.55
2023-01-23T02:00:29.733Z,8.55
2023-01-23T02:01:34.210Z,9.02
2023-01-23T02:02:51.181Z,9.13
2023-01-23T02:03:56.905Z,8.40
2023-01-23T02:05:15.665Z,7.40
2023-01-23T02:06:19.915Z,8.95
2023-01-23T02:07:42.104Z,9.00
2023-01-23T02:08:55.366Z,9.13
2023-01-23T02:09:59.391Z,7.32
2023-01-23T02:11:03.545Z,8.55
2023-01-23T02:12:07.135Z,9.32
2023-01-23T02:13:22.287Z,8.48
2023-01-23T02:14:27.055Z,8.40
2023-01-23T02:15:30.457Z,7.45
2023-01-23T02:16:41.259Z,8.80
2023-01-23T02:17:47.181Z,9.85
2023-01-23T02:18:57.520Z,9.63
2023-01-23T02:20:25.951Z,8.60
2023-01-23T02:21:30.480Z,8.45
2023-01-23T02:22:43.494Z,9.57
2023-01-23T02:24:19.970Z,8.90
2023-01-23T02:25:43.918Z,9.10
2023-01-23T02:26:49.054Z,8.93
2023-01-23T02:27:52.435Z,8.25
2023-01-23T02:28:56.198Z,8.80
2023-01-23T02:30:04.047Z,8.57
2023-01-23T02:31:10.066Z,9.35
2023-01-23T02:32:14.441Z,8.65
2023-01-23T02:33:20.120Z,10.27
2023-01-23T02:34:26.072Z,8.88
2023-01-23T02:36:48.205Z,8.88
2023-01-23T02:37:54.928Z,9.25
2023-01-23T02:39:13.390Z,8.43
2023-01-23T02:40:16.795Z,9.40
2023-01-23T02:41:39.024Z,9.98
2023-01-23T02:42:44.941Z,8.43
2023-01-23T02:43:51.585Z,8.70
2023-01-23T02:44:56.015Z,9.35
2023-01-23T02:46:01.654Z,8.52
2023-01-23T02:47:11.824Z,9.13
2023-01-23T02:48:15.028Z,9.95
2023-01-23T02:49:18.664Z,10.88
2023-01-23T02:50:21.904Z,8.95
2023-01-23T02:51:25.237Z,8.55
2023-01-23T02:52:29.312Z,10.32
2023-01-23T02:53:32.801Z,10.43
2023-01-23T02:54:36.316Z,9.57
2023-01-23T02:55:43.324Z,9.80
2023-01-23T02:56:47.423Z,9.60
2023-01-23T02:57:51.252Z,9.07
2023-01-23T02:59:20.475Z,8.77
2023-01-23T03:00:23.658Z,9.00
2023-01-23T03:01:27.825Z,9.43
2023-01-23T03:02:31.057Z,8.40
2023-01-23T03:03:34.453Z,9.48
2023-01-23T03:04:37.668Z,8.15
2023-01-23T03:05:40.745Z,8.32
2023-01-23T03:06:43.874Z,9.00
2023-01-23T03:07:47.005Z,9.52
2023-01-23T03:08:50.470Z,8.57
2023-01-23T03:09:53.968Z,8.68
2023-01-23T03:10:57.042Z,9.75
2023-01-23T03:12:01.130Z,8.50
2023-01-23T03:13:07.552Z,8.88
2023-01-23T03:14:20.430Z,9.35
2023-01-23T03:15:23.489Z,8.25
2023-01-23T03:16:27.473Z,8.10
2023-01-23T03:17:30.702Z,9.75
2023-01-23T03:18:40.046Z,10.30
2023-01-23T03:19:48.924Z,9.00
2023-01-23T03:20:54.448Z,9.05
2023-01-23T03:21:59.852Z,9.10
2023-01-23T03:23:03.081Z,8.88
2023-01-23T03:24:11.754Z,8.60
2023-01-23T03:25:17.320Z,9.20
2023-01-23T03:26:20.511Z,8.35
2023-01-23T03:27:24.671Z,9.73
2023-01-23T03:28:49.976Z,9.93
2023-01-23T03:30:12.245Z,9.60
2023-01-23T03:31:17.046Z,8.82
2023-01-23T03:32:22.536Z,9.35
2023-01-23T03:33:25.904Z,9.27
2023-01-23T03:34:30.841Z,9.52
2023-01-23T03:35:34.605Z,9.40
2023-01-23T03:36:38.990Z,8.77
2023-01-23T03:37:49.673Z,9.48
2023-01-23T03:39:11.168Z,9.15
2023-01-23T03:40:49.261Z,8.55
2023-01-23T03:41:54.546Z,8.80
2023-01-23T03:42:59.148Z,8.15
2023-01-23T03:44:04.645Z,8.98
2023-01-23T03:45:08.825Z,8.43
2023-01-23T03:46:12.592Z,9.93
2023-01-23T03:47:15.823Z,9.90
2023-01-23T03:48:18.946Z,9.40
2023-01-23T03:49:22.307Z,8.93
2023-01-23T03:50:32.529Z,8.73
2023-01-23T03:51:35.579Z,8.18
2023-01-23T03:52:38.709Z,9.13
2023-01-23T03:53:42.729Z,9.10
2023-01-23T03:54:46.773Z,7.97
2023-01-23T03:55:50.396Z,8.90
2023-01-23T03:56:57.034Z,9.23
2023-01-23T03:58:38.505Z,8.23
2023-01-23T03:59:41.700Z,8.80
2023-01-23T04:00:44.976Z,10.10
2023-01-23T04:01:48.384Z,8.63
2023-01-23T04:02:51.582Z,10.38
2023-01-23T04:03:54.691Z,9.55
2023-01-23T04:04:58.740Z,10.25
2023-01-23T04:06:03.023Z,9.65
2023-01-23T04:07:06.633Z,8.82
2023-01-23T04:08:10.779Z,8.98
2023-01-23T04:09:13.889Z,8.85
2023-01-23T04:10:17.396Z,8.40
2023-01-23T04:11:26.711Z,9.82
2023-01-23T04:12:30.037Z,9.10
2023-01-23T04:13:33.751Z,9.50
2023-01-23T04:14:37.793Z,9.43
2023-01-23T04:15:41.184Z,8.75
2023-01-23T04:16:44.373Z,8.35
2023-01-23T04:17:49.456Z,9.10
2023-01-23T04:18:54.405Z,9.05
2023-01-23T04:19:58.459Z,8.48
2023-01-23T04:21:02.328Z,9.15
2023-01-23T04:22:06.601Z,9.23
2023-01-23T04:23:16.947Z,9.13
2023-01-23T04:24:20.175Z,9.60
2023-01-23T04:25:23.943Z,8.68
2023-01-23T04:26:27.088Z,9.88
2023-01-23T04:27:30.867Z,9.27
2023-01-23T04:28:35.239Z,8.65
2023-01-23T04:29:39.824Z,8.98
2023-01-23T04:30:45.145Z,11.05
2023-01-23T04:31:55.587Z,8.93
2023-01-23T04:32:58.843Z,9.55
2023-01-23T04:34:02.038Z,8.52
2023-01-23T04:35:05.765Z,8.13
2023-01-23T04:36:12.143Z,8.65
2023-01-23T04:37:16.212Z,8.75
2023-01-23T04:38:19.515Z,9.70
2023-01-23T04:39:23.094Z,9.18
2023-01-23T04:40:27.016Z,8.40
2023-01-23T04:41:34.652Z,9.07
2023-01-23T04:42:43.334Z,8.98
2023-01-23T04:44:21.713Z,8.90
2023-01-23T04:45:55.368Z,9.75
2023-01-23T04:47:16.824Z,8.60
2023-01-23T04:48:20.220Z,9.02
2023-01-23T04:49:25.290Z,9.20
2023-01-23T04:50:28.669Z,7.97
2023-01-23T04:51:32.452Z,7.47
2023-01-23T04:52:35.694Z,8.95
2023-01-23T04:53:39.446Z,8.63
2023-01-23T04:54:43.982Z,8.45
2023-01-23T04:55:49.454Z,8.65
2023-01-23T04:56:53.712Z,8.13
2023-01-23T04:57:57.470Z,8.65
2023-01-23T04:59:02.981Z,8.90
2023-01-23T05:00:07.425Z,9.05
2023-01-23T05:01:11.101Z,9.93
2023-01-23T05:02:14.521Z,8.93
2023-01-23T05:03:19.669Z,8.60
2023-01-23T05:04:24.144Z,9.60
2023-01-23T05:05:27.434Z,9.80
2023-01-23T05:06:34.533Z,9.40
2023-01-23T05:07:37.678Z,9.95
2023-01-23T05:08:44.349Z,9.60
2023-01-23T05:10:11.139Z,9.20
2023-01-23T05:11:14.605Z,8.73
2023-01-23T05:12:17.815Z,9.52
2023-01-23T05:13:21.030Z,9.43
2023-01-23T05:14:25.399Z,9.35
2023-01-23T05:15:30.783Z,10.38
2023-01-23T05:16:34.273Z,9.18
2023-01-23T05:18:03.947Z,8.57
2023-01-23T05:19:07.286Z,9.02
2023-01-23T05:20:11.806Z,8.85
2023-01-23T05:21:15.669Z,8.40
2023-01-23T05:22:19.313Z,8.73
2023-01-23T05:23:22.534Z,9.52
2023-01-23T05:24:27.695Z,9.23
2023-01-23T05:25:32.850Z,9.20
2023-01-23T05:26:36.535Z,9.15
2023-01-23T05:27:39.742Z,8.73
2023-01-23T05:28:42.890Z,8.90
2023-01-23T05:29:46.036Z,8.82
2023-01-23T05:32:14.892Z,7.70
2023-01-23T05:33:20.819Z,8.25
2023-01-23T05:34:24.203Z,8.50
2023-01-23T05:35:27.485Z,9.18
2023-01-23T05:36:30.701Z,9.85
2023-01-23T05:37:34.823Z,9.20
2023-01-23T05:38:41.215Z,9.60
2023-01-23T05:39:44.947Z,9.15
2023-01-23T05:40:48.066Z,8.27
2023-01-23T05:41:51.460Z,7.82
2023-01-23T05:43:07.770Z,9.15
2023-01-23T05:44:33.827Z,8.93
2023-01-23T05:45:44.315Z,9.52
2023-01-23T05:46:56.619Z,8.25
2023-01-23T05:48:00.132Z,9.00
2023-01-23T05:49:04.167Z,8.23
2023-01-23T05:50:12.776Z,9.00
2023-01-23T05:51:16.038Z,9.30
2023-01-23T05:52:21.962Z,8.65
2023-01-23T05:53:25.124Z,9.63
2023-01-23T05:54:28.610Z,9.63
2023-01-23T05:55:31.756Z,9.32
2023-01-23T05:56:35.843Z,9.73
2023-01-23T05:57:57.534Z,9.32
2023-01-23T05:59:06.515Z,8.82
2023-01-23T06:00:19.674Z,9.70
2023-01-23T06:01:43.180Z,8.80
2023-01-23T06:03:06.575Z,9.93
2023-01-23T06:04:49.003Z,9.82
2023-01-23T06:06:02.755Z,10.43
2023-01-23T06:07:07.551Z,10.30
2023-01-23T06:08:11.736Z,9.23
2023-01-23T06:09:15.028Z,10.63
2023-01-23T06:10:18.792Z,9.98
2023-01-23T06:11:22.114Z,9.82
2023-01-23T06:12:26.338Z,9.80
2023-01-23T06:13:30.122Z,10.18
2023-01-23T06:14:33.213Z,9.75
2023-01-23T06:15:37.512Z,9.45
2023-01-23T06:16:45.473Z,9.55
2023-01-23T06:17:49.034Z,9.32
2023-01-23T06:18:52.216Z,10.70
2023-01-23T06:19:55.673Z,9.93
2023-01-23T06:21:02.032Z,10.05
2023-01-23T06:22:05.220Z,9.63
2023-01-23T06:23:17.592Z,9.38
2023-01-23T06:24:20.982Z,9.02
2023-01-23T06:25:24.645Z,11.45
2023-01-23T06:26:29.637Z,10.32
2023-01-23T06:27:33.569Z,10.48
2023-01-23T06:28:41.139Z,11.23
2023-01-23T06:29:44.547Z,10.18
2023-01-23T06:30:47.842Z,11.07
2023-01-23T06:32:00.664Z,10.18
2023-01-23T06:33:03.886Z,10.27
2023-01-23T06:34:12.112Z,10.25
2023-01-23T06:35:20.357Z,10.50
2023-01-23T06:36:23.638Z,11.38
2023-01-23T06:37:26.751Z,12.13
2023-01-23T06:38:30.204Z,10.32
2023-01-23T06:39:34.291Z,11.38
2023-01-23T06:40:38.476Z,10.00
2023-01-23T06:42:00.214Z,9.93
2023-01-23T06:43:03.541Z,10.52
2023-01-23T06:44:07.753Z,10.75
2023-01-23T06:45:12.372Z,10.18
2023-01-23T06:46:15.577Z,11.80
2023-01-23T06:47:19.661Z,11.23
2023-01-23T06:48:30.851Z,12.73
2023-01-23T06:49:35.440Z,11.98
2023-01-23T06:50:41.309Z,12.02
2023-01-23T06:51:45.037Z,11.68
2023-01-23T06:52:48.912Z,12.70
2023-01-23T06:53:52.028Z,12.45
2023-01-23T06:54:55.342Z,11.90
2023-01-23T06:56:07.431Z,11.38
2023-01-23T06:57:13.450Z,12.27
2023-01-23T06:58:17.195Z,11.35
2023-01-23T06:59:20.497Z,12.20
2023-01-23T07:00:24.045Z,11.75
2023-01-23T07:01:29.981Z,12.40
2023-01-23T07:02:58.887Z,12.55
2023-01-23T07:04:02.360Z,13.45
2023-01-23T07:05:07.012Z,13.73
2023-01-23T07:06:10.997Z,12.95
2023-01-23T07:07:14.393Z,12.68
2023-01-23T07:08:18.084Z,13.90
2023-01-23T07:09:21.228Z,12.38
2023-01-23T07:10:38.128Z,13.07
2023-01-23T07:11:41.293Z,12.07
2023-01-23T07:12:44.485Z,11.85
2023-01-23T07:13:47.706Z,12.32
2023-01-23T07:14:51.936Z,13.00
2023-01-23T07:16:00.471Z,12.45
2023-01-23T07:17:03.631Z,11.15
2023-01-23T07:18:07.931Z,12.27
2023-01-23T07:19:10.979Z,11.65
2023-01-23T07:20:16.027Z,11.57
2023-01-23T07:21:24.944Z,11.82
2023-01-23T07:22:37.625Z,11.07
2023-01-23T07:23:40.736Z,11.45
2023-01-23T07:24:43.998Z,12.32
2023-01-23T07:25:47.204Z,11.68
2023-01-23T07:26:50.405Z,11.73
2023-01-23T07:27:53.561Z,11.90
2023-01-23T07:28:56.748Z,12.27
2023-01-23T07:30:00.036Z,11.45
2023-01-23T07:31:04.442Z,11.88
2023-01-23T07:32:10.023Z,12.40
2023-01-23T07:33:13.975Z,10.63
2023-01-23T07:34:17.078Z,11.32
2023-01-23T07:35:21.187Z,12.15
2023-01-23T07:36:24.577Z,11.10
2023-01-23T07:37:27.762Z,12.30
2023-01-23T07:38:31.028Z,12.27
2023-01-23T07:39:34.108Z,12.82
2023-01-23T07:41:00.923Z,12.13
2023-01-23T07:42:04.260Z,11.85
2023-01-23T07:43:07.812Z,12.70
2023-01-23T07:44:18.210Z,13.60
2023-01-23T07:45:21.343Z,11.63
2023-01-23T07:46:25.903Z,12.30
2023-01-23T07:47:29.014Z,12.15
2023-01-23T07:48:32.167Z,12.00
2023-01-23T07:49:35.418Z,11.98
2023-01-23T07:50:38.561Z,12.57
2023-01-23T07:51:42.311Z,11.00
2023-01-23T07:52:45.509Z,11.50
2023-01-23T07:53:48.584Z,12.98
2023-01-23T07:54:51.712Z,13.95
2023-01-23T07:55:54.881Z,15.25
2023-01-23T07:56:58.040Z,15.77
2023-01-23T07:58:01.515Z,14.18
2023-01-23T07:59:04.732Z,15.10
2023-01-23T08:00:10.328Z,13.13
2023-01-23T08:01:16.256Z,13.13
2023-01-23T08:02:19.464Z,13.10
2023-01-23T08:03:22.640Z,12.38
2023-01-23T08:04:25.781Z,11.88
2023-01-23T08:05:29.053Z,12.00
2023-01-23T08:06:32.336Z,13.05
2023-01-23T08:07:35.487Z,11.68
2023-01-23T08:08:38.678Z,13.73
2023-01-23T08:09:42.004Z,11.77
2023-01-23T08:10:45.379Z,12.18
2023-01-23T08:11:52.601Z,11.88
2023-01-23T08:12:55.752Z,11.35
2023-01-23T08:13:59.018Z,12.45
2023-01-23T08:15:02.305Z,12.75
2023-01-23T08:16:07.127Z,12.30
2023-01-23T08:17:10.527Z,12.60
2023-01-23T08:18:13.784Z,12.90
2023-01-23T08:19:17.341Z,13.05
2023-01-23T08:20:20.802Z,12.20
2023-01-23T08:21:25.066Z,14.23
2023-01-23T08:22:28.219Z,12.35
2023-01-23T08:23:34.069Z,15.00
2023-01-23T08:24:37.278Z,13.25
2023-01-23T08:25:40.456Z,13.82
2023-01-23T08:26:43.933Z,13.32
2023-01-23T08:27:47.267Z,12.10
2023-01-23T08:28:50.470Z,12.43
2023-01-23T08:29:53.535Z,13.13
2023-01-23T08:31:06.843Z,12.60
2023-01-23T08:32:10.357Z,12.45
2023-01-23T08:33:13.666Z,11.45
2023-01-23T08:34:16.830Z,11.70
2023-01-23T08:35:20.045Z,12.55
2023-01-23T08:36:23.574Z,13.30
2023-01-23T08:37:26.956Z,12.18
2023-01-23T08:38:31.781Z,11.35
2023-01-23T08:39:35.680Z,12.68
2023-01-23T08:40:38.808Z,12.48
2023-01-23T08:41:41.932Z,11.80
2023-01-23T08:42:45.166Z,11.45
2023-01-23T08:43:48.402Z,11.93
2023-01-23T08:44:51.537Z,13.52
2023-01-23T08:45:57.346Z,11.63
2023-01-23T08:47:03.510Z,11.65
2023-01-23T08:48:07.948Z,12.70
2023-01-23T08:49:11.414Z,11.95
2023-01-23T08:50:14.869Z,12.55
2023-01-23T08:51:18.395Z,11.25
2023-01-23T08:52:21.637Z,11.27
2023-01-23T08:53:24.754Z,11.80
2023-01-23T08:54:27.909Z,11.32
2023-01-23T08:55:32.390Z,12.30
2023-01-23T08:56:35.543Z,11.82
2023-01-23T08:57:38.864Z,12.50
2023-01-23T08:58:42.628Z,11.88
2023-01-23T08:59:45.782Z,10.63
2023-01-23T09:00:49.299Z,12.60
2023-01-23T09:01:52.728Z,11.52
2023-01-23T09:02:55.854Z,13.45
2023-01-23T09:03:59.063Z,11.13
2023-01-23T09:05:02.562Z,12.15
2023-01-23T09:06:06.644Z,11.95
2023-01-23T09:07:09.893Z,12.38
2023-01-23T09:08:13.184Z,12.57
2023-01-23T09:09:16.367Z,11.65
2023-01-23T09:10:19.989Z,11.93
2023-01-23T09:11:23.940Z,11.50
2023-01-23T09:12:27.149Z,11.13
2023-01-23T09:13:30.897Z,10.95
2023-01-23T09:14:34.155Z,11.98
2023-01-23T09:15:40.902Z,11.73
2023-01-23T09:16:44.158Z,10.93
2023-01-23T09:17:47.460Z,12.93
2023-01-23T09:18:50.583Z,11.80
2023-01-23T09:19:53.877Z,13.35
2023-01-23T09:20:57.702Z,11.38
2023-01-23T09:22:01.158Z,12.07
2023-01-23T09:23:04.470Z,12.45
2023-01-23T09:24:08.700Z,11.55
2023-01-23T09:25:13.053Z,11.90
2023-01-23T09:26:18.184Z,12.75
2023-01-23T09:27:23.050Z,12.43
2023-01-23T09:28:26.124Z,12.00
2023-01-23T09:29:29.268Z,10.65
2023-01-23T09:30:32.704Z,10.73
2023-01-23T09:31:36.760Z,13.02
2023-01-23T09:32:40.187Z,11.63
2023-01-23T09:33:43.417Z,11.13
2023-01-23T09:34:49.017Z,11.40
2023-01-23T09:35:52.732Z,11.90
2023-01-23T09:36:56.241Z,11.93
2023-01-23T09:38:02.298Z,10.82
2023-01-23T09:39:05.423Z,11.20
2023-01-23T09:40:19.054Z,11.13
2023-01-23T09:41:28.305Z,9.10
2023-01-23T09:42:34.745Z,10.38
2023-01-23T09:43:52.496Z,10.57
2023-01-23T09:45:05.939Z,10.75
2023-01-23T09:46:08.986Z,12.65
2023-01-23T09:47:35.708Z,11.57
2023-01-23T09:48:46.173Z,9.93
2023-01-23T09:50:08.146Z,10.55
2023-01-23T09:51:38.571Z,11.60
2023-01-23T09:52:49.737Z,7.57
2023-01-23T09:54:00.099Z,10.25
2023-01-23T09:55:24.554Z,11.63
2023-01-23T09:56:41.454Z,10.35
2023-01-23T09:58:01.218Z,11.60
2023-01-23T09:59:33.844Z,11.10
2023-01-23T10:00:36.982Z,10.75
2023-01-23T10:01:40.669Z,10.55
2023-01-23T10:02:45.300Z,10.18
2023-01-23T10:03:48.430Z,9.57
2023-01-23T10:04:53.653Z,11.00
2023-01-23T10:06:15.782Z,9.82
2023-01-23T10:07:49.469Z,10.57
2023-01-23T10:09:39.856Z,9.40
2023-01-23T10:11:36.245Z,9.88
2023-01-23T10:13:36.320Z,10.13
2023-01-23T10:15:07.068Z,9.48
2023-01-23T10:16:50.425Z,9.20
2023-01-23T10:18:12.330Z,9.80
2023-01-23T10:19:50.825Z,10.90
2023-01-23T10:21:19.768Z,9.80
2023-01-23T10:22:56.571Z,10.52
2023-01-23T10:24:40.758Z,11.35
2023-01-23T10:25:44.448Z,9.68
2023-01-23T10:26:48.854Z,10.38
2023-01-23T10:27:55.858Z,10.50
2023-01-23T10:29:13.759Z,10.00
2023-01-23T10:30:33.507Z,8.77
2023-01-23T10:32:06.393Z,10.77
2023-01-23T10:33:16.939Z,9.63
2023-01-23T10:34:37.838Z,11.00
2023-01-23T10:37:26.848Z,8.88
2023-01-23T10:38:47.938Z,9.00
2023-01-23T10:40:03.258Z,8.38
2023-01-23T10:41:17.587Z,9.57
2023-01-23T10:42:25.576Z,9.70
2023-01-23T10:43:28.723Z,10.10
2023-01-23T10:44:31.909Z,10.85
2023-01-23T10:45:36.092Z,9.60
2023-01-23T10:46:54.303Z,9.25
2023-01-23T10:47:58.494Z,9.02
2023-01-23T10:49:02.695Z,10.35
2023-01-23T10:50:06.856Z,9.32
2023-01-23T10:51:31.342Z,8.35
2023-01-23T10:52:46.031Z,8.82
2023-01-23T10:54:36.611Z,11.38
2023-01-23T10:55:46.511Z,7.72
2023-01-23T10:57:23.416Z,6.45
2023-01-23T10:58:36.837Z,8.32
2023-01-23T11:00:01.524Z,9.25
2023-01-23T11:01:06.800Z,8.75
2023-01-23T11:02:15.958Z,9.75
2023-01-23T11:03:21.767Z,9.02
2023-01-23T11:04:28.620Z,9.57
2023-01-23T11:05:52.166Z,9.95
2023-01-23T11:07:16.506Z,9.05
2023-01-23T11:08:33.670Z,8.95
2023-01-23T11:09:54.185Z,8.77
2023-01-23T11:11:31.359Z,9.98
2023-01-23T11:12:46.962Z,9.00
2023-01-23T11:14:21.791Z,9.20
2023-01-23T11:15:32.673Z,9.27
2023-01-23T11:16:37.209Z,10.23
2023-01-23T11:17:43.223Z,9.68
2023-01-23T11:19:17.412Z,9.40
2023-01-23T11:20:34.511Z,8.73
2023-01-23T11:22:01.372Z,9.43
2023-01-23T11:23:13.241Z,10.30
2023-01-23T11:24:41.091Z,9.63
2023-01-23T11:25:50.765Z,8.70
2023-01-23T11:27:26.513Z,8.90
2023-01-23T11:28:51.238Z,8.88
2023-01-23T11:30:18.027Z,9.85
2023-01-23T11:31:22.828Z,11.15
2023-01-23T11:32:29.100Z,9.57
2023-01-23T11:33:59.350Z,10.45
2023-01-23T11:35:46.040Z,10.02
2023-01-23T11:37:31.615Z,8.82
2023-01-23T11:38:52.581Z,10.38
2023-01-23T11:40:11.127Z,9.77
2023-01-23T11:41:14.986Z,10.48
2023-01-23T11:42:19.620Z,10.43
2023-01-23T11:43:23.194Z,9.40
2023-01-23T11:44:28.237Z,9.45
2023-01-23T11:46:13.737Z,9.57
2023-01-23T11:48:06.992Z,9.27
2023-01-23T11:49:39.056Z,9.27
2023-01-23T11:50:55.331Z,9.38
2023-01-23T11:52:27.410Z,9.38
2023-01-23T11:53:44.129Z,8.73
2023-01-23T11:55:42.106Z,10.68
2023-01-23T11:57:07.950Z,9.43
2023-01-23T11:58:33.470Z,9.25
2023-01-23T12:00:09.132Z,9.25
2023-01-23T12:01:25.438Z,9.48
2023-01-23T12:02:52.489Z,9.77
2023-01-23T12:04:42.870Z,8.88
2023-01-23T12:06:21.197Z,8.68
2023-01-23T12:07:25.863Z,8.10
2023-01-23T12:08:50.656Z,8.90
2023-01-23T12:10:26.708Z,8.85
2023-01-23T12:11:59.378Z,9.48
2023-01-23T12:13:44.682Z,9.57
2023-01-23T12:15:16.405Z,11.75
2023-01-23T12:16:25.038Z,10.93
2023-01-23T12:18:23.735Z,10.32
2023-01-23T12:20:15.779Z,10.77
2023-01-23T12:21:55.756Z,9.98
2023-01-23T12:23:15.328Z,9.70
2023-01-23T12:24:42.589Z,10.75
2023-01-23T12:26:11.593Z,10.60
2023-01-23T12:27:36.103Z,11.52
2023-01-23T12:29:32.847Z,11.18
2023-01-23T12:31:37.070Z,11.48
2023-01-23T12:32:58.257Z,11.20
2023-01-23T12:34:47.985Z,9.43
2023-01-23T12:36:03.511Z,9.93
2023-01-23T12:37:31.231Z,9.07
2023-01-23T12:39:26.855Z,9.65
2023-01-23T12:40:42.085Z,9.82
2023-01-23T12:42:03.988Z,8.82
2023-01-23T12:43:47.848Z,9.95
2023-01-23T12:45:11.553Z,9.77
2023-01-23T12:46:46.301Z,11.07
2023-01-23T12:48:14.420Z,10.50
2023-01-23T12:49:29.334Z,8.98
2023-01-23T12:50:50.983Z,9.50
2023-01-23T12:52:11.849Z,10.02
2023-01-23T12:53:23.240Z,9.35
2023-01-23T12:54:43.122Z,9.35
2023-01-23T12:56:04.466Z,10.57
2023-01-23T12:57:11.384Z,10.20
2023-01-23T12:58:18.589Z,10.52
2023-01-23T13:00:01.830Z,10.77
2023-01-23T13:02:15.385Z,9.45
2023-01-23T13:03:47.656Z,9.25
2023-01-23T13:05:30.854Z,9.00
2023-01-23T13:07:16.762Z,9.70
2023-01-23T13:09:16.574Z,9.95
2023-01-23T13:11:36.437Z,10.07
2023-01-23T13:12:40.172Z,9.70
2023-01-23T13:13:45.500Z,12.18
2023-01-23T13:15:34.222Z,11.98
2023-01-23T13:16:20.251Z,10.57
2023-01-23T13:17:48.664Z,10.30
2023-01-23T13:19:38.357Z,9.65
2023-01-23T13:21:18.657Z,10.00
2023-01-23T13:22:29.340Z,12.20
2023-01-23T13:23:39.608Z,11.40
2023-01-23T13:25:17.333Z,12.45
2023-01-23T13:26:22.810Z,11.60
2023-01-23T13:27:45.001Z,12.32
2023-01-23T13:28:49.203Z,11.75
2023-01-23T13:29:52.363Z,11.00
2023-01-23T13:31:05.500Z,11.98
2023-01-23T13:32:23.318Z,12.15
2023-01-23T13:33:34.926Z,13.02
2023-01-23T13:34:38.475Z,12.13
2023-01-23T13:35:50.745Z,12.05
2023-01-23T13:36:54.894Z,13.45
2023-01-23T13:37:59.392Z,13.05
2023-01-23T13:39:17.647Z,11.80
2023-01-23T13:40:24.284Z,13.27
2023-01-23T13:41:31.908Z,12.65
2023-01-23T13:42:36.269Z,11.77
2023-01-23T13:44:04.143Z,11.65
2023-01-23T13:45:28.024Z,11.27
2023-01-23T14:20:23.833Z,13.48
2023-01-23T14:21:41.157Z,13.85
2023-01-23T14:22:44.952Z,12.27
2023-01-23T14:24:01.454Z,12.63
2023-01-23T14:25:14.446Z,12.98
2023-01-23T14:26:20.747Z,13.07
2023-01-23T14:27:52.114Z,13.98
2023-01-23T14:29:27.504Z,12.15
2023-01-23T14:30:31.723Z,11.95
2023-01-23T14:31:37.308Z,13.98
2023-01-23T14:32:40.693Z,12.85
2023-01-23T14:33:49.627Z,11.57
2023-01-23T14:34:53.992Z,11.68
2023-01-23T14:35:57.534Z,12.90
2023-01-23T14:37:10.812Z,13.57
2023-01-23T14:38:39.574Z,15.02
2023-01-23T14:39:53.787Z,13.93
2023-01-23T14:40:59.129Z,13.02
2023-01-23T14:42:05.361Z,13.55
2023-01-23T14:43:16.971Z,12.93
2023-01-23T14:44:37.117Z,13.35
2023-01-23T14:45:40.497Z,9.18
2023-01-23T14:46:44.111Z,13.25
2023-01-23T14:47:56.167Z,13.32
2023-01-23T14:49:06.437Z,12.55
2023-01-23T14:50:16.704Z,12.10
2023-01-23T14:51:26.478Z,11.73
2023-01-23T14:52:31.455Z,12.50
2023-01-23T14:53:34.842Z,12.05
2023-01-23T14:54:53.439Z,12.52
2023-01-23T14:55:59.911Z,12.10
2023-01-23T14:57:09.548Z,12.30
2023-01-23T14:58:23.729Z,13.23
2023-01-23T14:59:28.872Z,12.98
2023-01-23T15:00:34.351Z,12.77
2023-01-23T15:01:37.528Z,13.75
2023-01-23T15:02:40.858Z,12.70
2023-01-23T15:03:56.987Z,13.43
2023-01-23T15:05:13.520Z,11.63
2023-01-23T15:06:22.754Z,12.55
2023-01-23T15:07:26.022Z,12.82
2023-01-23T15:08:33.159Z,12.40
2023-01-23T15:09:42.915Z,12.60
2023-01-23T15:10:49.464Z,13.63
2023-01-23T15:11:52.872Z,13.32
2023-01-23T15:13:13.438Z,13.50
2023-01-23T15:14:39.268Z,12.00
2023-01-23T15:15:52.402Z,14.57
2023-01-23T15:17:05.610Z,13.48
2023-01-23T15:18:30.316Z,12.65
2023-01-23T15:19:37.226Z,12.60
2023-01-23T15:20:41.791Z,14.48
2023-01-23T15:21:44.944Z,13.45
2023-01-23T15:22:48.259Z,15.55
2023-01-23T15:24:09.797Z,14.27
2023-01-23T15:25:33.873Z,13.15
2023-01-23T15:26:39.377Z,13.65
2023-01-23T15:27:42.594Z,13.65
2023-01-23T15:28:52.903Z,15.27
2023-01-23T15:30:33.127Z,13.00
2023-01-23T15:31:39.544Z,9.23
2023-01-23T15:32:43.040Z,14.30
2023-01-23T15:33:47.810Z,14.95
2023-01-23T15:34:57.814Z,14.68
2023-01-23T15:36:17.287Z,16.33
2023-01-23T15:37:25.908Z,17.23
2023-01-23T15:38:29.967Z,16.30
2023-01-23T15:40:02.822Z,15.60
2023-01-23T15:41:10.769Z,12.35
2023-01-23T15:42:13.820Z,15.20
2023-01-23T15:43:19.628Z,13.32
2023-01-23T15:44:27.150Z,13.20
2023-01-23T15:45:31.160Z,13.02
2023-01-23T15:46:34.567Z,16.77
2023-01-23T15:47:37.702Z,17.33
2023-01-23T15:48:40.803Z,15.23
2023-01-23T15:49:44.128Z,15.95
2023-01-23T15:50:47.276Z,15.10
2023-01-23T15:51:51.080Z,14.07
2023-01-23T15:52:56.201Z,16.20
2023-01-23T15:53:59.353Z,15.27
2023-01-23T15:55:05.665Z,16.15
2023-01-23T15:56:27.363Z,15.70
2023-01-23T15:57:30.960Z,15.63
2023-01-23T15:58:34.211Z,16.88